Time;durP1;ratioP1;P1;durP2;ratioP2;P2;SDS_P1;SDS_P2;PMS_P1;PMS_P2;Temp;Humidity;BMP_temperature;BMP_pressure;BME280_temperature;BME280_humidity;BME280_pressure;Samples;Min_cycle;Max_cycle;Signal;HPM_P1;HPM_P2
2021/10/26 00:04:00;;;;;;;12.93;11.55;;;;;;;5.46;77.53;100441.03;10373515;28;20111;-72
2021/10/26 00:09:02;;;;;;;11.80;10.80;;;;;;;5.44;77.48;100446.25;10380165;28;20053;-72
2021/10/26 00:14:04;;;;;;;14.55;12.10;;;;;;;5.48;77.38;100450.56;10380975;28;20100;-73
2021/10/26 00:19:06;;;;;;;12.85;11.73;;;;;;;5.14;78.57;100454.19;10383305;28;20050;-73
2021/10/26 00:24:07;;;;;;;12.57;11.35;;;;;;;5.16;78.74;100449.84;10382183;28;20064;-73
2021/10/26 00:29:09;;;;;;;18.75;11.60;;;;;;;5.03;78.79;100438.56;10383070;28;20049;-73
2021/10/26 00:34:11;;;;;;;13.63;12.43;;;;;;;4.84;79.92;100439.50;10380956;28;20057;-73
2021/10/26 00:39:13;;;;;;;11.63;10.50;;;;;;;5.12;80.11;100429.88;10382211;28;20104;-72
2021/10/26 00:44:14;;;;;;;12.60;11.50;;;;;;;5.19;79.66;100429.84;10381820;28;20042;-73
2021/10/26 01:02:51;;;;;;;12.90;11.57;;;;;;;5.15;79.91;100419.44;10381392;28;20476;-72
2021/10/26 01:07:58;;;;;;;13.95;12.45;;;;;;;5.35;79.62;100412.38;10380702;28;20483;-73
2021/10/26 01:13:04;;;;;;;12.75;11.55;;;;;;;5.20;79.86;100412.47;10380094;28;20443;-72
2021/10/26 01:18:08;;;;;;;13.30;12.18;;;;;;;5.14;80.84;100404.69;10377830;28;20050;-73
2021/10/26 01:23:10;;;;;;;13.25;12.05;;;;;;;5.32;80.57;100399.41;10380505;28;20042;-73
2021/10/26 01:28:13;;;;;;;13.77;12.40;;;;;;;5.48;79.64;100408.00;10379238;28;20053;-72
2021/10/26 01:33:15;;;;;;;13.90;12.23;;;;;;;5.53;79.63;100401.91;10378833;28;20046;-72
2021/10/26 01:38:28;;;;;;;13.30;11.90;;;;;;;5.74;79.19;100402.63;10379618;28;20068;-73
2021/10/26 01:43:30;;;;;;;12.98;11.75;;;;;;;5.77;78.60;100402.63;10377562;28;20107;-73
2021/10/26 01:48:33;;;;;;;14.13;12.07;;;;;;;5.82;78.36;100408.66;10377309;28;20080;-73
2021/10/26 01:53:34;;;;;;;18.90;11.63;;;;;;;5.81;78.24;100410.41;10377758;28;20042;-73
2021/10/26 01:58:41;;;;;;;14.32;12.55;;;;;;;5.93;77.68;100403.41;10377922;28;20077;-73
2021/10/26 02:03:53;;;;;;;15.55;13.05;;;;;;;6.00;77.37;100407.72;10378447;28;20479;-73
2021/10/26 02:08:59;;;;;;;14.00;12.07;;;;;;;5.86;77.72;100405.16;10378172;28;20044;-73
2021/10/26 02:14:01;;;;;;;13.70;12.45;;;;;;;6.01;77.38;100405.09;10376554;28;20056;-73
2021/10/26 02:19:04;;;;;;;13.80;11.77;;;;;;;6.24;75.74;100398.81;10378424;28;20049;-73
2021/10/26 02:24:06;;;;;;;12.90;11.70;;;;;;;5.95;76.66;100394.69;10376512;28;20503;-73
2021/10/26 02:29:11;;;;;;;13.65;12.40;;;;;;;5.96;76.78;100400.78;10376512;28;20042;-73
2021/10/26 02:34:16;;;;;;;13.35;12.23;;;;;;;6.14;75.99;100394.56;10377600;28;20108;-73
2021/10/26 02:39:17;;;;;;;13.07;11.75;;;;;;;5.86;76.15;100399.94;10375467;28;20092;-73
2021/10/26 02:44:19;;;;;;;14.18;12.88;;;;;;;5.79;77.08;100404.31;10375250;28;20050;-73
2021/10/26 02:49:20;;;;;;;14.23;12.90;;;;;;;5.72;76.55;100397.44;10375698;28;20038;-73
2021/10/26 02:54:22;;;;;;;15.32;13.35;;;;;;;5.64;77.20;100395.75;10375179;28;20049;-73
2021/10/26 02:59:24;;;;;;;15.13;13.45;;;;;;;5.71;76.87;100405.25;10374756;28;20088;-73
2021/10/26 03:04:28;;;;;;;14.18;12.77;;;;;;;5.39;78.08;100416.72;10375050;28;20053;-73
2021/10/26 03:09:30;;;;;;;15.73;14.02;;;;;;;5.59;77.60;100407.94;10375809;28;20049;-73
2021/10/26 03:14:31;;;;;;;15.15;13.73;;;;;;;5.45;77.45;100410.63;10375484;28;20054;-73
2021/10/26 03:19:33;;;;;;;14.70;13.23;;;;;;;5.57;76.94;100414.00;10377267;28;20061;-73
2021/10/26 03:24:35;;;;;;;17.05;13.73;;;;;;;5.64;76.76;100414.00;10377313;28;20038;-73
2021/10/26 03:29:37;;;;;;;16.55;14.93;;;;;;;5.68;76.69;100423.53;10375537;28;20046;-73
2021/10/26 03:34:39;;;;;;;16.10;14.50;;;;;;;5.34;77.54;100425.44;10376410;28;20041;-73
2021/10/26 03:39:42;;;;;;;17.38;15.48;;;;;;;5.32;77.52;100431.53;10374998;28;20042;-73
2021/10/26 03:44:44;;;;;;;16.33;14.77;;;;;;;5.32;77.99;100426.31;10381126;28;20067;-73
2021/10/26 03:49:47;;;;;;;16.30;14.70;;;;;;;5.43;76.90;100428.88;10383319;28;20050;-73
2021/10/26 03:54:50;;;;;;;18.05;16.30;;;;;;;5.48;76.51;100419.28;10383257;28;20104;-73
2021/10/26 03:59:53;;;;;;;16.83;14.57;;;;;;;5.23;77.45;100430.72;10382323;28;20046;-72
2021/10/26 04:05:03;;;;;;;17.55;14.52;;;;;;;5.29;77.43;100425.47;10382555;28;20041;-72
2021/10/26 04:10:13;;;;;;;19.33;15.80;;;;;;;5.32;76.88;100417.63;10383221;28;20104;-72
2021/10/26 04:15:16;;;;;;;19.55;15.93;;;;;;;5.51;76.48;100413.19;10382005;28;20045;-72
2021/10/26 04:20:17;;;;;;;22.05;15.73;;;;;;;5.36;77.06;100426.28;10410075;23;20041;-75
2021/10/26 04:25:19;;;;;;;15.82;14.38;;;;;;;5.29;77.08;100425.47;10469636;28;20540;-74
2021/10/26 04:30:21;;;;;;;16.52;14.85;;;;;;;5.48;76.65;100419.28;10466221;28;20114;-75
2021/10/26 04:35:24;;;;;;;16.65;14.68;;;;;;;5.48;76.40;100427.09;10466117;28;20048;-74
2021/10/26 04:40:26;;;;;;;16.33;14.82;;;;;;;5.26;77.34;100439.34;10449081;28;20053;-74
2021/10/26 04:45:32;;;;;;;15.95;14.45;;;;;;;5.46;76.79;100443.66;10470715;28;20103;-73
2021/10/26 04:50:36;;;;;;;16.17;14.57;;;;;;;5.77;75.42;100450.44;10465856;28;20153;-76
2021/10/26 04:55:38;;;;;;;16.70;14.55;;;;;;;5.80;74.30;100449.56;10464217;28;20051;-75
2021/10/26 05:00:40;;;;;;;19.25;15.40;;;;;;;5.71;75.19;100455.69;10463145;28;20044;-73
2021/10/26 05:05:42;;;;;;;14.95;13.60;;;;;;;5.67;74.94;100443.53;10463348;28;20049;-74
2021/10/26 05:10:44;;;;;;;15.88;14.13;;;;;;;5.49;76.25;100451.44;10466034;28;20045;-73
2021/10/26 05:15:46;;;;;;;16.10;14.43;;;;;;;5.89;74.18;100457.34;10465246;28;20049;-74
2021/10/26 05:21:21;;;;;;;16.63;14.80;;;;;;;5.77;74.77;100449.56;10411562;28;20064;-73
2021/10/26 05:26:48;;;;;;;15.50;14.20;;;;;;;5.96;73.64;100446.00;10463850;28;20057;-73
2021/10/26 05:31:50;;;;;;;21.98;15.05;;;;;;;5.93;73.55;100448.66;10449061;28;20052;-74
2021/10/26 05:36:52;;;;;;;19.27;15.18;;;;;;;5.88;73.77;100462.53;10462004;28;20041;-74
2021/10/26 05:41:54;;;;;;;17.42;14.25;;;;;;;5.81;74.38;100461.72;10464191;28;20060;-73
2021/10/26 05:46:56;;;;;;;16.98;14.43;;;;;;;5.80;74.12;100465.22;10461744;28;20060;-74
2021/10/26 05:51:59;;;;;;;16.80;15.10;;;;;;;5.77;75.08;100473.91;10464152;28;20039;-73
2021/10/26 05:57:00;;;;;;;16.75;14.60;;;;;;;5.71;75.21;100484.41;10460482;28;20055;-73
2021/10/26 06:02:02;;;;;;;19.45;15.70;;;;;;;5.74;75.38;100481.75;10461323;28;20041;-73
2021/10/26 06:07:04;;;;;;;18.17;16.27;;;;;;;5.86;75.59;100498.22;10461822;28;20041;-74
2021/10/26 06:12:09;;;;;;;18.08;16.20;;;;;;;5.65;76.90;100513.09;10462651;28;20067;-73
2021/10/26 06:17:11;;;;;;;17.65;15.40;;;;;;;5.52;78.95;100516.63;10447383;28;20076;-74
2021/10/26 06:22:13;;;;;;;15.77;14.38;;;;;;;5.82;78.08;100513.03;10460680;28;20045;-74
2021/10/26 06:27:14;;;;;;;18.63;16.67;;;;;;;5.93;78.22;100520.81;10462616;28;20048;-75
2021/10/26 06:32:19;;;;;;;18.67;16.88;;;;;;;5.64;80.81;100526.16;10460198;28;20041;-75
2021/10/26 06:37:44;;;;;;;19.30;16.92;;;;;;;5.79;79.97;100520.84;10465381;28;20410;-75
2021/10/26 06:42:47;;;;;;;17.90;16.17;;;;;;;6.15;78.30;100527.66;10462847;28;20052;-76
2021/10/26 06:48:07;;;;;;;22.23;16.05;;;;;;;6.02;78.37;100534.72;10463067;28;20506;-75
2021/10/26 06:53:46;;;;;;;19.40;14.20;;;;;;;6.06;78.74;100541.66;10462262;28;20048;-75
2021/10/26 06:59:11;;;;;;;19.17;17.27;;;;;;;6.17;80.95;100543.31;10464599;28;20049;-75
2021/10/26 07:04:34;;;;;;;19.52;17.77;;;;;;;6.11;81.84;100543.34;10462510;28;20049;-74
2021/10/26 07:10:15;;;;;;;25.75;17.60;;;;;;;5.98;83.04;100558.22;10389775;28;20067;-75
2021/10/26 07:15:33;;;;;;;18.77;16.88;;;;;;;6.24;80.66;100556.34;10462209;28;20045;-74
2021/10/26 07:20:34;;;;;;;20.85;17.15;;;;;;;6.43;78.43;100554.47;10463227;28;20045;-75
2021/10/26 07:26:12;;;;;;;19.30;17.48;;;;;;;6.55;78.56;100564.84;10461215;28;20052;-75
2021/10/26 07:31:15;;;;;;;19.40;17.25;;;;;;;6.53;78.29;100558.75;10460354;28;20103;-75
2021/10/26 07:36:18;;;;;;;22.73;17.77;;;;;;;6.58;78.47;100577.00;10459139;28;20510;-75
2021/10/26 07:41:21;;;;;;;21.13;18.92;;;;;;;6.48;79.99;100572.72;10461765;28;20132;-75
2021/10/26 07:46:42;;;;;;;20.42;18.35;;;;;;;6.37;80.63;100582.34;10461764;28;20053;-76
2021/10/26 07:51:48;;;;;;;19.92;17.15;;;;;;;6.55;81.06;100584.84;10460297;28;20044;-75
2021/10/26 07:56:54;;;;;;;20.27;18.38;;;;;;;6.84;78.92;100584.66;10461387;28;20048;-76
2021/10/26 08:01:57;;;;;;;20.80;17.17;;;;;;;6.69;78.86;100596.09;10463660;28;20525;-75
2021/10/26 08:07:18;;;;;;;18.50;16.67;;;;;;;7.00;77.91;100595.88;10461691;28;20045;-75
2021/10/26 08:12:23;;;;;;;18.35;16.60;;;;;;;7.24;75.26;100581.69;10458894;28;20041;-75
2021/10/26 08:17:27;;;;;;;24.23;17.98;;;;;;;7.23;75.51;100587.81;10459681;28;20052;-76
2021/10/26 08:22:32;;;;;;;18.98;17.10;;;;;;;7.13;76.56;100581.81;10461275;28;20041;-74
2021/10/26 08:27:34;;;;;;;19.08;16.05;;;;;;;7.17;76.83;100577.41;10460761;28;20044;-75
2021/10/26 08:32:53;;;;;;;20.35;16.67;;;;;;;7.31;75.22;100583.38;10465400;28;20533;-75
2021/10/26 08:38:05;;;;;;;19.98;15.85;;;;;;;7.32;76.83;100572.03;10464760;28;20048;-75
2021/10/26 08:43:23;;;;;;;18.42;16.23;;;;;;;7.56;75.90;100569.16;10464535;28;20410;-76
2021/10/26 08:48:26;;;;;;;19.23;17.45;;;;;;;7.77;74.65;100575.91;10468131;28;20049;-76
2021/10/26 08:53:29;;;;;;;20.65;16.73;;;;;;;8.01;75.05;100569.53;10465728;28;20567;-76
2021/10/26 08:58:35;;;;;;;20.88;17.20;;;;;;;8.45;74.53;100562.81;10464560;28;20053;-77
2021/10/26 09:03:39;;;;;;;20.58;15.60;;;;;;;9.02;70.43;100570.66;10464497;28;20053;-75
2021/10/26 09:08:42;;;;;;;16.70;15.20;;;;;;;9.23;69.50;100574.66;10469555;28;20041;-75
2021/10/26 09:19:44;;;;;;;17.80;16.13;;;;;;;9.04;70.13;100586.38;10406744;28;20048;-75
2021/10/26 09:25:12;;;;;;;16.83;15.23;;;;;;;8.76;71.13;100580.69;10504815;28;20060;-75
2021/10/26 09:30:22;;;;;;;18.73;15.50;;;;;;;8.75;71.59;100581.59;10510100;28;20036;-75
2021/10/26 09:35:24;;;;;;;17.92;14.30;;;;;;;8.63;72.09;100585.25;10504640;28;20119;-75
2021/10/26 09:40:40;;;;;;;22.98;16.58;;;;;;;9.03;70.92;100584.63;10503848;28;20127;-76
2021/10/26 09:45:42;;;;;;;17.50;15.63;;;;;;;9.03;71.33;100587.25;10503803;28;20414;-75
2021/10/26 09:50:43;;;;;;;20.92;15.95;;;;;;;9.03;71.53;100589.88;10489220;28;20040;-75
2021/10/26 09:55:48;;;;;;;16.88;15.25;;;;;;;9.32;70.92;100582.38;10503823;28;20078;-76
2021/10/26 10:00:52;;;;;;;17.83;16.13;;;;;;;9.44;72.52;100588.31;10504254;28;20045;-77
2021/10/26 10:06:04;;;;;;;17.48;15.68;;;;;;;9.91;69.91;100582.13;10505973;28;20115;-77
2021/10/26 10:11:13;;;;;;;18.33;16.45;;;;;;;9.99;69.95;100588.09;10488489;28;20036;-75
2021/10/26 10:16:18;;;;;;;17.38;15.55;;;;;;;10.39;69.10;100574.13;10506671;28;20071;-76
2021/10/26 10:21:25;;;;;;;18.90;16.73;;;;;;;10.95;67.22;100576.34;10518229;22;20434;-73
2021/10/26 10:26:29;;;;;;;14.75;13.32;;;;;;;11.46;65.40;100576.75;10500685;28;20489;-73
2021/10/26 10:31:32;;;;;;;15.05;13.55;;;;;;;11.39;66.18;100567.31;10500834;28;20040;-73
2021/10/26 10:36:41;;;;;;;17.77;15.80;;;;;;;11.26;65.83;100560.63;10483716;28;20048;-73
2021/10/26 10:41:43;;;;;;;15.98;14.45;;;;;;;11.82;65.46;100550.31;10499111;28;20044;-73
2021/10/26 10:46:59;;;;;;;13.45;9.32;;;;;;;12.27;65.99;100545.50;10499946;28;20053;-73
2021/10/26 10:52:21;;;;;;;9.70;8.30;;;;;;;12.50;66.52;100552.69;10500192;28;20063;-74
2021/10/26 10:57:36;;;;;;;16.65;15.05;;;;;;;12.38;63.79;100547.78;10498719;28;20494;-73
2021/10/26 11:02:42;;;;;;;17.17;15.43;;;;;;;12.88;62.36;100545.31;10499777;28;20036;-73
2021/10/26 11:07:43;;;;;;;18.98;15.32;;;;;;;12.89;61.90;100541.78;10500030;28;20052;-74
2021/10/26 11:12:46;;;;;;;12.77;11.57;;;;;;;13.41;60.03;100544.41;10497908;28;20053;-74
2021/10/26 11:17:52;;;;;;;14.93;13.23;;;;;;;12.99;61.50;100537.91;10499631;28;20060;-73
2021/10/26 11:23:04;;;;;;;15.60;14.20;;;;;;;12.72;63.91;100539.69;10497592;28;20040;-74
2021/10/26 11:28:18;;;;;;;16.85;14.52;;;;;;;12.94;62.32;100533.72;10499794;28;20075;-73
2021/10/26 11:33:22;;;;;;;13.93;12.65;;;;;;;13.58;59.46;100540.25;10500262;28;20044;-74
2021/10/26 11:38:30;;;;;;;16.38;14.77;;;;;;;13.17;61.18;100531.13;10501127;28;20115;-73
2021/10/26 11:43:48;;;;;;;17.20;15.32;;;;;;;13.06;60.71;100530.66;10498984;28;20128;-74
2021/10/26 11:48:51;;;;;;;17.95;14.60;;;;;;;13.36;61.33;100529.59;10500212;28;20052;-75
2021/10/26 11:53:56;;;;;;;6.68;6.18;;;;;;;13.36;63.49;100531.38;10498747;28;20090;-73
2021/10/26 11:59:15;;;;;;;12.25;9.40;;;;;;;13.06;63.30;100533.31;10498610;28;20036;-73
2021/10/26 12:04:51;;;;;;;18.05;14.85;;;;;;;13.01;62.35;100541.34;10504293;28;20044;-74
2021/10/26 12:10:00;;;;;;;8.82;7.75;;;;;;;12.90;65.24;100546.13;10506451;28;20489;-74
2021/10/26 12:15:04;;;;;;;7.95;7.13;;;;;;;13.08;64.86;100550.78;10505749;28;20135;-73
2021/10/26 12:20:20;;;;;;;7.78;7.07;;;;;;;13.42;64.50;100552.31;10505263;28;20093;-74
2021/10/26 12:25:38;;;;;;;4.15;3.75;;;;;;;13.66;63.63;100550.56;10490189;28;20055;-76
2021/10/26 12:30:44;;;;;;;4.28;3.10;;;;;;;13.77;63.92;100545.75;10488339;28;20045;-74
2021/10/26 12:35:49;;;;;;;5.20;4.00;;;;;;;14.26;61.15;100535.13;10505843;28;20052;-75
2021/10/26 12:41:19;;;;;;;4.28;3.88;;;;;;;13.93;62.76;100550.47;10504577;28;20586;-73
2021/10/26 12:46:34;;;;;;;5.25;4.07;;;;;;;13.73;63.32;100551.22;10502954;28;20413;-74
2021/10/26 12:51:37;;;;;;;5.18;4.68;;;;;;;13.98;62.08;100551.16;10506479;28;20391;-74
2021/10/26 12:56:50;;;;;;;5.00;4.47;;;;;;;13.90;62.91;100548.81;10505480;28;20040;-74
2021/10/26 13:02:07;;;;;;;4.95;4.50;;;;;;;13.88;62.23;100540.06;10504321;28;20040;-74
2021/10/26 13:07:11;;;;;;;5.78;5.28;;;;;;;13.95;62.30;100553.94;10505596;28;20058;-74
2021/10/26 13:12:16;;;;;;;6.30;5.70;;;;;;;13.71;62.91;100553.91;10504111;28;20049;-74
2021/10/26 13:17:36;;;;;;;8.70;6.30;;;;;;;13.52;63.60;100540.50;10501761;28;20132;-74
2021/10/26 13:23:11;;;;;;;7.82;6.50;;;;;;;13.70;62.62;100538.09;10503387;28;20036;-74
2021/10/26 13:28:22;;;;;;;6.85;6.15;;;;;;;13.49;63.52;100547.66;10416843;28;20466;-74
2021/10/26 13:33:33;;;;;;;6.80;6.10;;;;;;;13.56;63.24;100550.03;10416584;28;20048;-74
2021/10/26 13:38:35;;;;;;;7.18;6.55;;;;;;;13.38;64.33;100540.13;10417574;28;20050;-75
2021/10/26 13:43:39;;;;;;;11.43;6.55;;;;;;;13.55;64.08;100550.97;10417096;28;20423;-75
2021/10/26 13:48:41;;;;;;;7.38;6.55;;;;;;;13.59;64.02;100549.94;10416116;28;20064;-73
2021/10/26 13:53:44;;;;;;;8.20;7.30;;;;;;;13.71;63.22;100548.59;10415671;28;20099;-75
2021/10/26 13:58:46;;;;;;;11.32;6.95;;;;;;;13.58;64.21;100553.47;10415545;28;20111;-75
2021/10/26 14:03:49;;;;;;;6.78;6.20;;;;;;;13.69;63.78;100560.16;10481225;28;20501;-75
2021/10/26 14:08:52;;;;;;;5.63;5.18;;;;;;;13.73;63.54;100554.72;10501095;28;20060;-75
2021/10/26 14:13:54;;;;;;;6.57;5.97;;;;;;;13.55;64.71;100556.25;10502100;28;20048;-75
2021/10/26 14:18:56;;;;;;;6.70;6.10;;;;;;;13.46;64.58;100546.00;10502100;28;20036;-75
2021/10/26 14:23:57;;;;;;;6.25;5.75;;;;;;;13.51;65.18;100562.56;10501880;28;20044;-75
2021/10/26 14:29:16;;;;;;;6.90;6.40;;;;;;;13.75;63.56;100557.28;10500166;28;20051;-75
2021/10/26 14:34:20;;;;;;;7.97;7.32;;;;;;;13.57;64.25;100554.41;10510141;28;20048;-73
2021/10/26 14:55:46;;;;;;;7.70;6.88;;;;;;;13.32;66.10;100582.56;10513619;28;20440;-75
2021/10/26 15:00:48;;;;;;;7.88;7.15;;;;;;;13.44;65.08;100584.78;10502046;28;20090;-74
2021/10/26 15:05:50;;;;;;;7.10;6.40;;;;;;;13.18;66.31;100576.88;10508660;28;20110;-74
2021/10/26 15:11:08;;;;;;;7.57;6.93;;;;;;;13.10;66.50;100579.75;10500697;28;20029;-73
2021/10/26 15:16:17;;;;;;;6.70;6.20;;;;;;;13.08;66.47;100581.59;10498565;28;20044;-74
2021/10/26 15:21:32;;;;;;;8.32;7.32;;;;;;;13.30;65.52;100579.13;10528445;28;20058;-75
2021/10/26 15:36:58;;;;;;;7.30;6.40;;;;;;;13.11;65.85;100606.13;10496761;28;20413;-75
2021/10/26 15:42:00;;;;;;;6.82;5.95;;;;;;;12.93;66.53;100606.72;10497783;28;20036;-74
2021/10/26 15:47:01;;;;;;;6.30;5.70;;;;;;;12.83;67.19;100615.81;10499865;28;20044;-76
2021/10/26 15:52:03;;;;;;;6.63;5.72;;;;;;;12.62;67.81;100623.53;10498808;28;20041;-74
2021/10/26 15:57:05;;;;;;;5.40;4.90;;;;;;;12.79;67.04;100630.03;10541640;28;20055;-76
2021/10/26 16:02:07;;;;;;;5.72;5.22;;;;;;;12.58;68.33;100640.34;10536426;28;20033;-75
2021/10/26 16:07:10;;;;;;;5.88;5.32;;;;;;;12.81;67.33;100634.34;10499676;28;20075;-75
2021/10/26 16:12:16;;;;;;;5.28;4.78;;;;;;;12.75;67.30;100641.59;10499078;28;20053;-75
2021/10/26 16:17:18;;;;;;;5.22;4.63;;;;;;;12.51;68.42;100651.13;10498602;28;20040;-75
2021/10/26 16:22:43;;;;;;;5.05;4.55;;;;;;;12.32;69.02;100667.47;10505290;22;20041;-85
2021/10/26 16:28:21;;;;;;;;;;;;;;;;;;;;;
2021/10/26 16:34:09;;;;;;;4.70;4.22;;;;;;;12.55;67.82;100666.81;10431411;22;20414;-71
2021/10/26 16:39:11;;;;;;;4.43;4.03;;;;;;;12.50;67.56;100670.50;10454807;28;20051;-70
2021/10/26 16:44:23;;;;;;;3.45;3.13;;;;;;;12.57;66.94;100669.38;10455226;28;20057;-70
2021/10/26 16:49:25;;;;;;;4.60;4.07;;;;;;;12.50;66.83;100671.34;10456570;28;20045;-71
2021/10/26 16:54:26;;;;;;;3.80;3.40;;;;;;;12.42;67.19;100678.63;10461925;28;20056;-71
2021/10/26 16:59:28;;;;;;;4.40;4.00;;;;;;;12.27;67.24;100685.22;10457266;28;20040;-71
2021/10/26 17:04:29;;;;;;;4.53;4.10;;;;;;;12.04;68.12;100679.69;10461557;28;20095;-71
2021/10/26 17:09:32;;;;;;;4.93;4.43;;;;;;;12.06;67.55;100678.75;10459757;28;20049;-71
2021/10/26 17:14:36;;;;;;;5.35;4.85;;;;;;;11.83;68.65;100679.38;10460836;28;20103;-71
2021/10/26 17:19:40;;;;;;;6.00;5.40;;;;;;;11.69;69.28;100697.28;10461079;28;20095;-71
2021/10/26 17:24:42;;;;;;;6.20;5.60;;;;;;;11.59;69.93;100703.69;10461468;28;20045;-71
2021/10/26 17:29:44;;;;;;;5.80;5.30;;;;;;;11.50;70.25;100712.66;10461226;28;20079;-71
2021/10/26 17:34:45;;;;;;;5.45;4.95;;;;;;;11.54;69.53;100718.72;10460044;28;20413;-71
2021/10/26 17:39:47;;;;;;;5.18;4.25;;;;;;;11.42;70.09;100724.28;10459229;28;20051;-71
2021/10/26 17:44:48;;;;;;;4.38;3.85;;;;;;;11.46;69.67;100731.22;10459683;28;20056;-72
2021/10/26 17:49:50;;;;;;;4.22;3.83;;;;;;;11.24;70.68;100713.28;10460421;28;20041;-71
2021/10/26 17:54:54;;;;;;;4.18;3.78;;;;;;;11.07;71.26;100726.88;10459190;28;20052;-70
2021/10/26 17:59:57;;;;;;;4.72;4.32;;;;;;;10.99;71.36;100733.19;10458830;28;20052;-70
2021/10/26 18:04:59;;;;;;;6.32;4.38;;;;;;;10.96;71.52;100736.75;10458200;28;20045;-71
2021/10/26 18:10:04;;;;;;;4.80;4.40;;;;;;;11.01;71.41;100741.91;10459108;28;20045;-71
2021/10/26 18:15:06;;;;;;;5.50;5.05;;;;;;;10.69;72.11;100737.34;10458580;28;20513;-70
2021/10/26 18:20:08;;;;;;;6.20;5.63;;;;;;;10.58;72.85;100740.19;10458678;28;20041;-70
2021/10/26 18:25:10;;;;;;;6.05;5.43;;;;;;;10.54;72.51;100749.06;10459956;28;20375;-71
2021/10/26 18:30:12;;;;;;;5.57;5.07;;;;;;;10.50;72.44;100752.66;10456795;28;20048;-70
2021/10/26 18:35:17;;;;;;;5.85;4.55;;;;;;;10.45;72.57;100739.59;10456889;28;20499;-70
2021/10/26 18:40:24;;;;;;;8.45;4.63;;;;;;;10.41;72.53;100748.44;10458313;28;20124;-71
2021/10/26 18:45:33;;;;;;;4.85;4.45;;;;;;;10.35;72.73;100753.78;10456476;28;20450;-70
2021/10/26 18:50:36;;;;;;;5.15;4.68;;;;;;;10.44;72.42;100750.97;10457794;28;20037;-71
2021/10/26 18:55:41;;;;;;;4.70;4.28;;;;;;;10.44;72.21;100756.25;10481564;28;20214;-70
2021/10/26 19:00:43;;;;;;;4.80;4.15;;;;;;;10.50;72.15;100764.03;10502042;28;20490;-70
2021/10/26 19:05:48;;;;;;;5.22;4.55;;;;;;;10.49;72.22;100759.66;10497363;28;20048;-69
2021/10/26 19:10:49;;;;;;;5.88;4.50;;;;;;;10.36;72.58;100771.31;10497688;28;20059;-71
2021/10/26 19:15:51;;;;;;;4.45;4.05;;;;;;;10.35;72.73;100764.31;10498187;28;20044;-72
2021/10/26 19:20:53;;;;;;;5.03;4.20;;;;;;;10.19;73.14;100768.09;10497369;28;20044;-71
2021/10/26 19:25:55;;;;;;;4.63;4.22;;;;;;;10.33;72.52;100755.59;10479506;28;20049;-70
2021/10/26 19:30:57;;;;;;;5.03;4.53;;;;;;;10.24;72.91;100771.50;10497028;28;20037;-71
2021/10/26 19:36:00;;;;;;;5.03;4.53;;;;;;;10.19;72.99;100778.63;10479127;28;20052;-71
2021/10/26 19:41:02;;;;;;;4.50;4.07;;;;;;;10.28;72.96;100776.72;10498968;28;20563;-70
2021/10/26 19:46:04;;;;;;;4.80;4.20;;;;;;;10.28;72.80;100779.34;10479273;28;20063;-70
2021/10/26 19:51:06;;;;;;;4.45;3.75;;;;;;;10.32;72.69;100774.91;10496984;28;20102;-70
2021/10/26 19:56:08;;;;;;;4.63;4.22;;;;;;;10.20;72.79;100770.69;10479022;28;20048;-70
2021/10/26 20:01:10;;;;;;;6.38;4.25;;;;;;;9.99;73.75;100773.69;10497664;28;20119;-70
2021/10/26 20:06:12;;;;;;;5.32;4.03;;;;;;;10.14;73.46;100777.81;10479072;28;20106;-71
2021/10/26 20:11:13;;;;;;;5.38;4.07;;;;;;;10.03;73.49;100791.13;10478880;28;20102;-71
2021/10/26 20:16:15;;;;;;;4.45;3.85;;;;;;;9.84;74.54;100774.84;10496545;28;20048;-70
2021/10/26 20:21:30;;;;;;;4.47;3.97;;;;;;;9.97;73.86;100788.63;10478930;28;20043;-71
2021/10/26 20:26:49;;;;;;;5.18;3.90;;;;;;;9.94;73.86;100793.94;10502126;28;20045;-70
2021/10/26 20:31:50;;;;;;;4.32;3.92;;;;;;;9.95;73.89;100800.91;10503551;28;20040;-72
2021/10/26 20:36:52;;;;;;;5.15;4.18;;;;;;;9.73;75.00;100803.88;10486496;28;20055;-72
2021/10/26 20:41:56;;;;;;;5.13;4.63;;;;;;;9.81;74.71;100809.00;10503783;28;20109;-70
2021/10/26 20:46:58;;;;;;;5.32;4.28;;;;;;;9.89;74.49;100811.53;10486103;28;20090;-72
2021/10/26 20:52:00;;;;;;;5.05;3.83;;;;;;;10.10;73.38;100816.41;10485435;28;20049;-71
2021/10/26 20:57:01;;;;;;;3.85;3.50;;;;;;;9.99;73.77;100805.22;10504518;28;20045;-72
2021/10/26 21:02:04;;;;;;;4.85;4.03;;;;;;;10.04;73.58;100803.38;10485770;28;20144;-71
2021/10/26 21:07:06;;;;;;;4.80;3.90;;;;;;;9.89;74.00;100801.03;10485142;28;20502;-70
2021/10/26 21:12:08;;;;;;;5.75;3.90;;;;;;;9.91;74.25;100793.97;10502172;28;20033;-71
2021/10/26 21:17:15;;;;;;;3.70;3.38;;;;;;;9.99;73.71;100797.34;10486049;28;20044;-71
2021/10/26 21:22:17;;;;;;;4.30;3.90;;;;;;;9.89;74.01;100801.88;10502281;28;20041;-71
2021/10/26 21:27:18;;;;;;;5.22;3.50;;;;;;;9.91;74.24;100805.34;10502285;28;20127;-70
2021/10/26 21:32:26;;;;;;;4.68;4.18;;;;;;;9.88;74.26;100799.28;10501707;28;20106;-72
2021/10/26 21:42:30;;;;;;;4.20;3.90;;;;;;;9.77;74.54;100799.44;10501514;28;20106;-72
2021/10/26 21:47:31;;;;;;;4.20;3.80;;;;;;;9.85;74.26;100806.31;10501135;28;20056;-71
2021/10/26 21:52:36;;;;;;;4.22;3.83;;;;;;;9.75;74.79;100815.25;10500838;28;20406;-71
2021/10/26 21:57:37;;;;;;;5.22;4.45;;;;;;;9.74;74.95;100805.63;10500745;28;20579;-71
2021/10/26 22:02:39;;;;;;;4.25;3.80;;;;;;;9.64;75.32;100801.41;10482407;28;20448;-71
2021/10/26 22:07:41;;;;;;;5.40;4.35;;;;;;;9.74;75.36;100803.00;10483180;28;20098;-71
2021/10/26 22:12:43;;;;;;;5.22;4.20;;;;;;;9.68;75.50;100802.22;10481490;28;20076;-70
2021/10/26 22:17:45;;;;;;;4.90;4.50;;;;;;;9.82;75.35;100806.34;10500031;28;20049;-71
2021/10/26 22:22:47;;;;;;;5.32;3.75;;;;;;;9.71;75.67;100799.56;10522833;22;20089;-74
2021/10/26 22:27:49;;;;;;;5.30;3.80;;;;;;;9.79;75.54;100789.81;10545332;28;20048;-75
2021/10/26 22:32:51;;;;;;;4.38;3.97;;;;;;;9.80;75.50;100788.91;10544616;28;20063;-75
2021/10/26 22:37:53;;;;;;;5.40;3.75;;;;;;;9.85;75.62;100781.81;10543973;28;20036;-75
2021/10/26 22:42:54;;;;;;;7.82;4.28;;;;;;;10.00;74.87;100784.16;10525089;28;20040;-74
2021/10/26 22:47:56;;;;;;;4.13;3.72;;;;;;;9.99;75.28;100785.06;10543211;28;20070;-76
2021/10/26 22:52:58;;;;;;;5.25;3.42;;;;;;;9.83;75.80;100787.09;10543885;28;20046;-74
2021/10/26 22:58:00;;;;;;;4.22;3.83;;;;;;;9.88;75.73;100787.03;10525446;28;20044;-74
2021/10/26 23:03:02;;;;;;;3.92;3.53;;;;;;;9.83;75.81;100789.72;10525367;28;20047;-74
2021/10/26 23:08:04;;;;;;;4.18;3.78;;;;;;;9.75;76.44;100786.38;10525398;28;20086;-74
2021/10/26 23:13:06;;;;;;;4.30;3.90;;;;;;;9.39;77.78;100790.44;10542835;28;20562;-74
2021/10/26 23:18:08;;;;;;;4.25;3.85;;;;;;;9.37;78.24;100786.09;10541452;28;20048;-74
2021/10/26 23:23:09;;;;;;;4.30;3.92;;;;;;;9.42;78.50;100800.00;10523905;28;20455;-74
2021/10/26 23:28:11;;;;;;;4.22;3.85;;;;;;;9.44;77.50;100804.34;10523977;28;20052;-74
2021/10/26 23:33:13;;;;;;;4.50;4.10;;;;;;;8.95;79.98;100817.28;10541871;28;20485;-74
2021/10/26 23:38:15;;;;;;;4.15;3.75;;;;;;;8.80;80.44;100818.31;10523764;28;20070;-73
2021/10/26 23:43:19;;;;;;;4.80;4.38;;;;;;;8.67;80.90;100824.56;10541524;28;20047;-74
2021/10/26 23:48:21;;;;;;;4.95;4.55;;;;;;;8.29;81.96;100828.47;10523836;28;20040;-75
2021/10/26 23:53:23;;;;;;;4.90;4.45;;;;;;;8.12;82.17;100840.84;10541720;28;20055;-74
2021/10/26 23:58:25;;;;;;;6.63;5.50;;;;;;;7.96;82.91;100856.66;10524714;28;20110;-74
